sensor_id;sensor_type;location;lat;lon;timestamp;temperature;humidity
31783;DHT22;18351;47.560;9.708;2022-12-29T00:01:49;6.80;99.90
31783;DHT22;18351;47.560;9.708;2022-12-29T00:04:15;6.70;99.90
31783;DHT22;18351;47.560;9.708;2022-12-29T00:06:42;6.70;99.90
31783;DHT22;18351;47.560;9.708;2022-12-29T00:09:08;6.70;99.90
31783;DHT22;18351;47.560;9.708;2022-12-29T00:11:35;6.60;99.90
31783;DHT22;18351;47.560;9.708;2022-12-29T00:14:01;6.60;99.90
31783;DHT22;18351;47.560;9.708;2022-12-29T00:16:44;6.60;99.90
31783;DHT22;18351;47.560;9.708;2022-12-29T00:19:11;6.60;99.90
31783;DHT22;18351;47.560;9.708;2022-12-29T00:21:55;6.50;99.90
31783;DHT22;18351;47.560;9.708;2022-12-29T00:24:39;6.50;99.90
31783;DHT22;18351;47.560;9.708;2022-12-29T00:27:23;6.40;99.90
31783;DHT22;18351;47.560;9.708;2022-12-29T00:30:10;6.40;99.90
31783;DHT22;18351;47.560;9.708;2022-12-29T00:32:55;6.40;99.90
31783;DHT22;18351;47.560;9.708;2022-12-29T00:35:50;6.30;99.90
31783;DHT22;18351;47.560;9.708;2022-12-29T00:38:18;6.30;99.90
31783;DHT22;18351;47.560;9.708;2022-12-29T00:41:02;6.30;99.90
31783;DHT22;18351;47.560;9.708;2022-12-29T00:43:46;6.30;99.90
31783;DHT22;18351;47.560;9.708;2022-12-29T00:46:30;6.30;99.90
31783;DHT22;18351;47.560;9.708;2022-12-29T00:48:57;6.30;99.90
31783;DHT22;18351;47.560;9.708;2022-12-29T00:51:41;6.30;99.90
31783;DHT22;18351;47.560;9.708;2022-12-29T00:54:07;6.30;99.90
31783;DHT22;18351;47.560;9.708;2022-12-29T00:56:32;6.30;99.90
31783;DHT22;18351;47.560;9.708;2022-12-29T00:59:02;6.40;99.90
31783;DHT22;18351;47.560;9.708;2022-12-29T01:01:28;6.40;99.90
31783;DHT22;18351;47.560;9.708;2022-12-29T01:03:54;6.40;99.90
31783;DHT22;18351;47.560;9.708;2022-12-29T01:06:19;6.40;99.90
31783;DHT22;18351;47.560;9.708;2022-12-29T01:08:45;6.40;99.90
31783;DHT22;18351;47.560;9.708;2022-12-29T01:11:12;6.40;99.90
31783;DHT22;18351;47.560;9.708;2022-12-29T01:13:39;6.50;99.90
31783;DHT22;18351;47.560;9.708;2022-12-29T01:16:06;6.50;99.90
31783;DHT22;18351;47.560;9.708;2022-12-29T01:18:32;6.50;99.90
31783;DHT22;18351;47.560;9.708;2022-12-29T01:21:03;6.50;99.90
31783;DHT22;18351;47.560;9.708;2022-12-29T01:23:29;6.60;99.90
31783;DHT22;18351;47.560;9.708;2022-12-29T01:25:55;6.50;99.60
31783;DHT22;18351;47.560;9.708;2022-12-29T01:28:21;6.60;99.30
31783;DHT22;18351;47.560;9.708;2022-12-29T01:30:47;6.60;99.40
31783;DHT22;18351;47.560;9.708;2022-12-29T01:33:13;6.70;99.20
31783;DHT22;18351;47.560;9.708;2022-12-29T01:35:38;6.70;98.90
31783;DHT22;18351;47.560;9.708;2022-12-29T01:38:04;6.80;99.10
31783;DHT22;18351;47.560;9.708;2022-12-29T01:40:30;6.80;98.10
31783;DHT22;18351;47.560;9.708;2022-12-29T01:42:55;6.90;98.10
31783;DHT22;18351;47.560;9.708;2022-12-29T01:45:21;6.90;97.40
31783;DHT22;18351;47.560;9.708;2022-12-29T01:47:53;6.90;96.80
31783;DHT22;18351;47.560;9.708;2022-12-29T01:50:23;6.90;96.70
31783;DHT22;18351;47.560;9.708;2022-12-29T01:52:58;6.90;97.10
31783;DHT22;18351;47.560;9.708;2022-12-29T01:55:26;6.90;97.10
31783;DHT22;18351;47.560;9.708;2022-12-29T01:57:53;6.90;97.50
31783;DHT22;18351;47.560;9.708;2022-12-29T02:00:19;6.90;98.00
31783;DHT22;18351;47.560;9.708;2022-12-29T02:02:49;6.90;98.30
31783;DHT22;18351;47.560;9.708;2022-12-29T02:05:58;6.90;97.50
31783;DHT22;18351;47.560;9.708;2022-12-29T02:08:28;7.00;97.10
31783;DHT22;18351;47.560;9.708;2022-12-29T02:10:56;7.10;95.60
31783;DHT22;18351;47.560;9.708;2022-12-29T02:13:24;7.20;95.50
31783;DHT22;18351;47.560;9.708;2022-12-29T02:18:43;7.30;94.40
31783;DHT22;18351;47.560;9.708;2022-12-29T02:24:24;7.40;95.00
31783;DHT22;18351;47.560;9.708;2022-12-29T02:40:51;7.50;93.20
31783;DHT22;18351;47.560;9.708;2022-12-29T02:43:24;7.60;93.60
31783;DHT22;18351;47.560;9.708;2022-12-29T02:45:56;7.60;93.90
31783;DHT22;18351;47.560;9.708;2022-12-29T02:51:04;7.70;92.70
31783;DHT22;18351;47.560;9.708;2022-12-29T02:53:34;7.70;92.70
31783;DHT22;18351;47.560;9.708;2022-12-29T02:56:18;7.70;92.60
31783;DHT22;18351;47.560;9.708;2022-12-29T02:58:44;7.70;93.20
31783;DHT22;18351;47.560;9.708;2022-12-29T03:01:49;7.70;92.90
31783;DHT22;18351;47.560;9.708;2022-12-29T03:07:55;7.70;93.60
31783;DHT22;18351;47.560;9.708;2022-12-29T03:10:35;7.70;93.70
31783;DHT22;18351;47.560;9.708;2022-12-29T03:13:26;7.70;93.20
31783;DHT22;18351;47.560;9.708;2022-12-29T03:21:46;7.70;93.10
31783;DHT22;18351;47.560;9.708;2022-12-29T03:24:40;7.70;93.40
31783;DHT22;18351;47.560;9.708;2022-12-29T03:27:09;7.70;92.60
31783;DHT22;18351;47.560;9.708;2022-12-29T03:29:41;7.70;92.40
31783;DHT22;18351;47.560;9.708;2022-12-29T03:32:08;7.70;92.50
31783;DHT22;18351;47.560;9.708;2022-12-29T03:34:36;7.70;92.60
31783;DHT22;18351;47.560;9.708;2022-12-29T03:37:09;7.70;92.10
31783;DHT22;18351;47.560;9.708;2022-12-29T03:39:36;7.70;92.10
31783;DHT22;18351;47.560;9.708;2022-12-29T03:42:05;7.70;91.70
31783;DHT22;18351;47.560;9.708;2022-12-29T03:44:36;7.70;92.10
31783;DHT22;18351;47.560;9.708;2022-12-29T03:47:03;7.70;92.30
31783;DHT22;18351;47.560;9.708;2022-12-29T03:49:29;7.70;92.20
31783;DHT22;18351;47.560;9.708;2022-12-29T03:51:54;7.60;92.30
31783;DHT22;18351;47.560;9.708;2022-12-29T03:54:20;7.60;92.40
31783;DHT22;18351;47.560;9.708;2022-12-29T03:56:45;7.60;92.70
31783;DHT22;18351;47.560;9.708;2022-12-29T03:59:11;7.50;94.10
31783;DHT22;18351;47.560;9.708;2022-12-29T04:01:36;7.50;92.40
31783;DHT22;18351;47.560;9.708;2022-12-29T04:04:02;7.50;93.00
31783;DHT22;18351;47.560;9.708;2022-12-29T04:06:28;7.40;93.20
31783;DHT22;18351;47.560;9.708;2022-12-29T04:08:53;7.30;93.60
31783;DHT22;18351;47.560;9.708;2022-12-29T04:11:19;7.30;93.90
31783;DHT22;18351;47.560;9.708;2022-12-29T04:13:45;7.30;94.10
31783;DHT22;18351;47.560;9.708;2022-12-29T04:16:10;7.30;94.50
31783;DHT22;18351;47.560;9.708;2022-12-29T04:18:36;7.20;94.30
31783;DHT22;18351;47.560;9.708;2022-12-29T04:21:01;7.20;94.30
31783;DHT22;18351;47.560;9.708;2022-12-29T04:23:29;7.20;94.20
31783;DHT22;18351;47.560;9.708;2022-12-29T04:25:55;7.20;94.20
31783;DHT22;18351;47.560;9.708;2022-12-29T04:28:21;7.30;93.50
31783;DHT22;18351;47.560;9.708;2022-12-29T04:30:47;7.40;93.30
31783;DHT22;18351;47.560;9.708;2022-12-29T04:33:13;7.40;94.40
31783;DHT22;18351;47.560;9.708;2022-12-29T04:35:38;7.50;93.80
31783;DHT22;18351;47.560;9.708;2022-12-29T04:38:04;7.50;94.20
31783;DHT22;18351;47.560;9.708;2022-12-29T04:40:30;7.50;94.80
31783;DHT22;18351;47.560;9.708;2022-12-29T04:42:55;7.50;94.40
31783;DHT22;18351;47.560;9.708;2022-12-29T04:45:21;7.50;94.20
31783;DHT22;18351;47.560;9.708;2022-12-29T04:47:46;7.50;93.00
31783;DHT22;18351;47.560;9.708;2022-12-29T04:50:12;7.60;92.60
31783;DHT22;18351;47.560;9.708;2022-12-29T04:52:38;7.60;93.20
31783;DHT22;18351;47.560;9.708;2022-12-29T04:55:04;7.60;92.30
31783;DHT22;18351;47.560;9.708;2022-12-29T04:57:30;7.60;90.90
31783;DHT22;18351;47.560;9.708;2022-12-29T04:59:56;7.70;90.60
31783;DHT22;18351;47.560;9.708;2022-12-29T05:02:21;7.70;90.20
31783;DHT22;18351;47.560;9.708;2022-12-29T05:04:47;7.70;90.10
31783;DHT22;18351;47.560;9.708;2022-12-29T05:07:13;7.70;90.20
31783;DHT22;18351;47.560;9.708;2022-12-29T05:09:38;7.70;90.00
31783;DHT22;18351;47.560;9.708;2022-12-29T05:12:04;7.70;90.00
31783;DHT22;18351;47.560;9.708;2022-12-29T05:14:30;7.70;90.30
31783;DHT22;18351;47.560;9.708;2022-12-29T05:16:55;7.60;90.40
31783;DHT22;18351;47.560;9.708;2022-12-29T05:19:21;7.60;90.70
31783;DHT22;18351;47.560;9.708;2022-12-29T05:21:46;7.60;90.60
31783;DHT22;18351;47.560;9.708;2022-12-29T05:24:12;7.60;89.80
31783;DHT22;18351;47.560;9.708;2022-12-29T05:26:38;7.60;89.90
31783;DHT22;18351;47.560;9.708;2022-12-29T05:29:04;7.70;90.50
31783;DHT22;18351;47.560;9.708;2022-12-29T05:31:29;7.70;90.70
31783;DHT22;18351;47.560;9.708;2022-12-29T05:33:55;7.70;90.60
31783;DHT22;18351;47.560;9.708;2022-12-29T05:36:20;7.60;90.00
31783;DHT22;18351;47.560;9.708;2022-12-29T05:38:46;7.70;90.70
31783;DHT22;18351;47.560;9.708;2022-12-29T05:41:11;7.60;91.00
31783;DHT22;18351;47.560;9.708;2022-12-29T05:43:37;7.60;90.60
31783;DHT22;18351;47.560;9.708;2022-12-29T05:46:03;7.50;90.40
31783;DHT22;18351;47.560;9.708;2022-12-29T05:48:29;7.50;90.50
31783;DHT22;18351;47.560;9.708;2022-12-29T05:50:54;7.40;90.30
31783;DHT22;18351;47.560;9.708;2022-12-29T05:53:20;7.40;90.50
31783;DHT22;18351;47.560;9.708;2022-12-29T05:55:47;7.30;90.50
31783;DHT22;18351;47.560;9.708;2022-12-29T05:58:13;7.20;90.80
31783;DHT22;18351;47.560;9.708;2022-12-29T06:00:38;7.20;91.20
31783;DHT22;18351;47.560;9.708;2022-12-29T06:03:04;7.20;91.40
31783;DHT22;18351;47.560;9.708;2022-12-29T06:05:30;7.20;91.10
31783;DHT22;18351;47.560;9.708;2022-12-29T06:07:55;7.20;90.80
31783;DHT22;18351;47.560;9.708;2022-12-29T06:10:21;7.10;91.50
31783;DHT22;18351;47.560;9.708;2022-12-29T06:12:46;7.10;91.70
31783;DHT22;18351;47.560;9.708;2022-12-29T06:15:12;7.10;91.60
31783;DHT22;18351;47.560;9.708;2022-12-29T06:17:38;7.10;92.00
31783;DHT22;18351;47.560;9.708;2022-12-29T06:20:04;7.20;91.20
31783;DHT22;18351;47.560;9.708;2022-12-29T06:22:30;7.20;90.90
31783;DHT22;18351;47.560;9.708;2022-12-29T06:24:56;7.30;90.90
31783;DHT22;18351;47.560;9.708;2022-12-29T06:27:22;7.30;91.00
31783;DHT22;18351;47.560;9.708;2022-12-29T06:29:47;7.30;90.80
31783;DHT22;18351;47.560;9.708;2022-12-29T06:32:13;7.40;90.70
31783;DHT22;18351;47.560;9.708;2022-12-29T06:34:39;7.40;90.30
31783;DHT22;18351;47.560;9.708;2022-12-29T06:37:04;7.50;90.20
31783;DHT22;18351;47.560;9.708;2022-12-29T06:39:30;7.50;90.30
31783;DHT22;18351;47.560;9.708;2022-12-29T06:41:55;7.50;90.10
31783;DHT22;18351;47.560;9.708;2022-12-29T06:44:21;7.60;89.00
31783;DHT22;18351;47.560;9.708;2022-12-29T06:46:47;7.60;89.10
31783;DHT22;18351;47.560;9.708;2022-12-29T06:49:12;7.60;89.00
31783;DHT22;18351;47.560;9.708;2022-12-29T06:51:38;7.70;88.20
31783;DHT22;18351;47.560;9.708;2022-12-29T06:54:04;7.70;88.70
31783;DHT22;18351;47.560;9.708;2022-12-29T06:56:29;7.70;89.20
31783;DHT22;18351;47.560;9.708;2022-12-29T06:58:55;7.70;88.20
31783;DHT22;18351;47.560;9.708;2022-12-29T07:01:20;7.70;87.90
31783;DHT22;18351;47.560;9.708;2022-12-29T07:03:46;7.80;87.60
31783;DHT22;18351;47.560;9.708;2022-12-29T07:06:11;7.80;86.40
31783;DHT22;18351;47.560;9.708;2022-12-29T07:08:37;7.80;86.40
31783;DHT22;18351;47.560;9.708;2022-12-29T07:11:04;7.90;87.20
31783;DHT22;18351;47.560;9.708;2022-12-29T07:13:30;7.90;86.10
31783;DHT22;18351;47.560;9.708;2022-12-29T07:15:56;8.00;83.70
31783;DHT22;18351;47.560;9.708;2022-12-29T07:18:21;8.00;83.30
31783;DHT22;18351;47.560;9.708;2022-12-29T07:20:47;8.10;83.20
31783;DHT22;18351;47.560;9.708;2022-12-29T07:23:13;8.10;85.00
31783;DHT22;18351;47.560;9.708;2022-12-29T07:25:38;8.20;80.60
31783;DHT22;18351;47.560;9.708;2022-12-29T07:28:06;8.20;81.20
31783;DHT22;18351;47.560;9.708;2022-12-29T07:30:32;8.30;81.80
31783;DHT22;18351;47.560;9.708;2022-12-29T07:32:58;8.30;82.20
31783;DHT22;18351;47.560;9.708;2022-12-29T07:35:23;8.30;82.20
31783;DHT22;18351;47.560;9.708;2022-12-29T07:37:49;8.30;81.70
31783;DHT22;18351;47.560;9.708;2022-12-29T07:40:14;8.40;82.20
31783;DHT22;18351;47.560;9.708;2022-12-29T07:42:40;8.40;82.50
31783;DHT22;18351;47.560;9.708;2022-12-29T07:45:06;8.40;82.70
31783;DHT22;18351;47.560;9.708;2022-12-29T07:47:32;8.50;84.20
31783;DHT22;18351;47.560;9.708;2022-12-29T07:49:57;8.50;85.50
31783;DHT22;18351;47.560;9.708;2022-12-29T07:52:23;8.50;88.00
31783;DHT22;18351;47.560;9.708;2022-12-29T07:54:48;8.60;87.20
31783;DHT22;18351;47.560;9.708;2022-12-29T07:57:14;8.60;87.60
31783;DHT22;18351;47.560;9.708;2022-12-29T07:59:39;8.60;88.40
31783;DHT22;18351;47.560;9.708;2022-12-29T08:02:05;8.60;89.40
31783;DHT22;18351;47.560;9.708;2022-12-29T08:04:30;8.60;90.30
31783;DHT22;18351;47.560;9.708;2022-12-29T08:06:56;8.70;90.90
31783;DHT22;18351;47.560;9.708;2022-12-29T08:09:21;8.70;90.90
31783;DHT22;18351;47.560;9.708;2022-12-29T08:11:47;8.70;90.40
31783;DHT22;18351;47.560;9.708;2022-12-29T08:14:12;8.80;88.70
31783;DHT22;18351;47.560;9.708;2022-12-29T08:16:38;8.80;86.10
31783;DHT22;18351;47.560;9.708;2022-12-29T08:19:04;8.80;85.50
31783;DHT22;18351;47.560;9.708;2022-12-29T08:21:30;8.80;82.90
31783;DHT22;18351;47.560;9.708;2022-12-29T08:23:56;8.90;81.20
31783;DHT22;18351;47.560;9.708;2022-12-29T08:26:22;9.00;81.10
31783;DHT22;18351;47.560;9.708;2022-12-29T08:28:48;9.00;81.90
31783;DHT22;18351;47.560;9.708;2022-12-29T08:31:13;9.00;79.80
31783;DHT22;18351;47.560;9.708;2022-12-29T08:33:39;9.10;81.10
31783;DHT22;18351;47.560;9.708;2022-12-29T08:36:06;9.10;78.60
31783;DHT22;18351;47.560;9.708;2022-12-29T08:38:32;9.20;78.70
31783;DHT22;18351;47.560;9.708;2022-12-29T08:40:59;9.20;80.00
31783;DHT22;18351;47.560;9.708;2022-12-29T08:43:27;9.30;78.10
31783;DHT22;18351;47.560;9.708;2022-12-29T08:45:52;9.30;78.30
31783;DHT22;18351;47.560;9.708;2022-12-29T08:48:18;9.40;81.10
31783;DHT22;18351;47.560;9.708;2022-12-29T08:50:47;9.40;80.30
31783;DHT22;18351;47.560;9.708;2022-12-29T08:53:13;9.50;80.70
31783;DHT22;18351;47.560;9.708;2022-12-29T08:55:39;9.50;80.30
31783;DHT22;18351;47.560;9.708;2022-12-29T08:58:05;9.50;78.60
31783;DHT22;18351;47.560;9.708;2022-12-29T09:00:30;9.60;79.40
31783;DHT22;18351;47.560;9.708;2022-12-29T09:02:56;9.60;80.10
31783;DHT22;18351;47.560;9.708;2022-12-29T09:05:21;9.60;79.40
31783;DHT22;18351;47.560;9.708;2022-12-29T09:07:47;9.60;78.50
31783;DHT22;18351;47.560;9.708;2022-12-29T09:10:12;9.70;78.50
31783;DHT22;18351;47.560;9.708;2022-12-29T09:12:38;9.70;78.60
31783;DHT22;18351;47.560;9.708;2022-12-29T09:15:04;9.70;80.80
31783;DHT22;18351;47.560;9.708;2022-12-29T09:17:30;9.80;78.90
31783;DHT22;18351;47.560;9.708;2022-12-29T09:20:09;9.90;78.80
31783;DHT22;18351;47.560;9.708;2022-12-29T09:22:36;9.90;78.60
31783;DHT22;18351;47.560;9.708;2022-12-29T09:25:01;10.00;79.70
31783;DHT22;18351;47.560;9.708;2022-12-29T09:27:27;10.10;78.50
31783;DHT22;18351;47.560;9.708;2022-12-29T09:29:53;10.10;77.50
31783;DHT22;18351;47.560;9.708;2022-12-29T09:32:18;10.20;78.80
31783;DHT22;18351;47.560;9.708;2022-12-29T09:34:44;10.20;77.90
31783;DHT22;18351;47.560;9.708;2022-12-29T09:37:09;10.30;76.70
31783;DHT22;18351;47.560;9.708;2022-12-29T09:39:35;10.30;75.90
31783;DHT22;18351;47.560;9.708;2022-12-29T09:47:32;10.50;75.20
31783;DHT22;18351;47.560;9.708;2022-12-29T09:50:15;10.50;74.00
31783;DHT22;18351;47.560;9.708;2022-12-29T09:52:57;10.50;75.60
31783;DHT22;18351;47.560;9.708;2022-12-29T09:55:32;10.70;73.90
31783;DHT22;18351;47.560;9.708;2022-12-29T09:58:02;10.70;74.10
31783;DHT22;18351;47.560;9.708;2022-12-29T10:01:00;10.80;73.60
31783;DHT22;18351;47.560;9.708;2022-12-29T10:03:54;10.80;74.20
31783;DHT22;18351;47.560;9.708;2022-12-29T10:17:38;11.50;70.40
31783;DHT22;18351;47.560;9.708;2022-12-29T10:20:26;11.60;70.00
31783;DHT22;18351;47.560;9.708;2022-12-29T10:25:32;11.80;69.40
31783;DHT22;18351;47.560;9.708;2022-12-29T10:28:04;11.90;67.80
31783;DHT22;18351;47.560;9.708;2022-12-29T10:30:33;12.00;67.60
31783;DHT22;18351;47.560;9.708;2022-12-29T10:33:04;12.00;67.90
31783;DHT22;18351;47.560;9.708;2022-12-29T10:35:35;12.20;68.00
31783;DHT22;18351;47.560;9.708;2022-12-29T10:38:40;12.30;67.40
31783;DHT22;18351;47.560;9.708;2022-12-29T10:43:44;12.50;66.90
31783;DHT22;18351;47.560;9.708;2022-12-29T10:46:13;12.50;68.20
31783;DHT22;18351;47.560;9.708;2022-12-29T10:48:40;12.60;68.70
31783;DHT22;18351;47.560;9.708;2022-12-29T10:51:07;12.70;68.10
31783;DHT22;18351;47.560;9.708;2022-12-29T10:53:43;12.80;65.80
31783;DHT22;18351;47.560;9.708;2022-12-29T10:56:38;12.80;66.50
31783;DHT22;18351;47.560;9.708;2022-12-29T10:59:19;12.90;66.10
31783;DHT22;18351;47.560;9.708;2022-12-29T11:01:55;13.10;66.40
31783;DHT22;18351;47.560;9.708;2022-12-29T11:07:10;13.40;65.00
31783;DHT22;18351;47.560;9.708;2022-12-29T11:09:37;13.40;64.90
31783;DHT22;18351;47.560;9.708;2022-12-29T11:12:30;13.40;66.20
31783;DHT22;18351;47.560;9.708;2022-12-29T11:15:13;13.60;67.20
31783;DHT22;18351;47.560;9.708;2022-12-29T11:17:53;13.60;64.60
31783;DHT22;18351;47.560;9.708;2022-12-29T11:20:36;13.70;65.30
31783;DHT22;18351;47.560;9.708;2022-12-29T11:26:24;13.80;65.90
31783;DHT22;18351;47.560;9.708;2022-12-29T11:31:52;13.80;64.90
31783;DHT22;18351;47.560;9.708;2022-12-29T11:34:40;13.70;65.20
31783;DHT22;18351;47.560;9.708;2022-12-29T11:37:12;13.70;65.30
31783;DHT22;18351;47.560;9.708;2022-12-29T11:39:52;13.70;66.20
31783;DHT22;18351;47.560;9.708;2022-12-29T11:42:23;13.80;66.10
31783;DHT22;18351;47.560;9.708;2022-12-29T11:44:50;13.80;66.70
31783;DHT22;18351;47.560;9.708;2022-12-29T11:47:26;13.80;65.20
31783;DHT22;18351;47.560;9.708;2022-12-29T11:49:55;13.80;64.50
31783;DHT22;18351;47.560;9.708;2022-12-29T11:52:24;13.80;65.20
31783;DHT22;18351;47.560;9.708;2022-12-29T11:54:51;13.80;64.70
31783;DHT22;18351;47.560;9.708;2022-12-29T11:57:19;13.80;65.30
31783;DHT22;18351;47.560;9.708;2022-12-29T11:59:54;13.60;64.90
31783;DHT22;18351;47.560;9.708;2022-12-29T12:02:32;13.50;66.20
31783;DHT22;18351;47.560;9.708;2022-12-29T12:05:27;13.50;65.90
31783;DHT22;18351;47.560;9.708;2022-12-29T12:10:32;13.50;65.70
31783;DHT22;18351;47.560;9.708;2022-12-29T12:13:17;13.50;65.50
31783;DHT22;18351;47.560;9.708;2022-12-29T12:15:54;13.50;65.00
31783;DHT22;18351;47.560;9.708;2022-12-29T12:18:36;13.50;64.70
31783;DHT22;18351;47.560;9.708;2022-12-29T12:21:56;13.40;64.00
31783;DHT22;18351;47.560;9.708;2022-12-29T12:24:20;13.30;62.10
31783;DHT22;18351;47.560;9.708;2022-12-29T12:30:03;13.10;62.40
31783;DHT22;18351;47.560;9.708;2022-12-29T12:35:14;13.20;61.80
31783;DHT22;18351;47.560;9.708;2022-12-29T12:37:58;13.20;62.20
31783;DHT22;18351;47.560;9.708;2022-12-29T12:40:35;13.20;61.20
31783;DHT22;18351;47.560;9.708;2022-12-29T12:46:24;13.10;61.00
31783;DHT22;18351;47.560;9.708;2022-12-29T12:49:20;13.10;60.20
31783;DHT22;18351;47.560;9.708;2022-12-29T13:00:21;12.80;63.40
31783;DHT22;18351;47.560;9.708;2022-12-29T13:03:17;12.70;61.70
31783;DHT22;18351;47.560;9.708;2022-12-29T13:08:48;12.70;63.60
31783;DHT22;18351;47.560;9.708;2022-12-29T13:11:41;12.70;63.40
31783;DHT22;18351;47.560;9.708;2022-12-29T13:14:20;12.60;64.50
31783;DHT22;18351;47.560;9.708;2022-12-29T13:22:19;12.60;66.50
31783;DHT22;18351;47.560;9.708;2022-12-29T13:25:19;12.50;66.80
31783;DHT22;18351;47.560;9.708;2022-12-29T13:27:56;12.50;66.80
31783;DHT22;18351;47.560;9.708;2022-12-29T13:31:04;12.60;67.90
31783;DHT22;18351;47.560;9.708;2022-12-29T13:36:09;12.60;67.80
31783;DHT22;18351;47.560;9.708;2022-12-29T13:38:42;12.60;68.20
31783;DHT22;18351;47.560;9.708;2022-12-29T13:41:13;12.60;68.80
31783;DHT22;18351;47.560;9.708;2022-12-29T13:43:41;12.60;69.70
31783;DHT22;18351;47.560;9.708;2022-12-29T13:46:16;12.60;69.20
31783;DHT22;18351;47.560;9.708;2022-12-29T13:48:48;12.60;69.10
31783;DHT22;18351;47.560;9.708;2022-12-29T13:51:16;12.60;69.80
31783;DHT22;18351;47.560;9.708;2022-12-29T13:56:39;12.60;69.00
31783;DHT22;18351;47.560;9.708;2022-12-29T13:59:14;12.60;70.20
31783;DHT22;18351;47.560;9.708;2022-12-29T14:01:59;12.60;71.60
31783;DHT22;18351;47.560;9.708;2022-12-29T14:04:29;12.50;71.20
31783;DHT22;18351;47.560;9.708;2022-12-29T14:07:06;12.50;72.30
31783;DHT22;18351;47.560;9.708;2022-12-29T14:09:47;12.40;72.00
31783;DHT22;18351;47.560;9.708;2022-12-29T14:12:32;12.40;72.30
31783;DHT22;18351;47.560;9.708;2022-12-29T14:15:26;12.30;70.50
31783;DHT22;18351;47.560;9.708;2022-12-29T14:23:37;12.10;72.70
31783;DHT22;18351;47.560;9.708;2022-12-29T14:28:40;12.10;73.80
31783;DHT22;18351;47.560;9.708;2022-12-29T14:36:38;11.90;76.20
31783;DHT22;18351;47.560;9.708;2022-12-29T14:45:06;11.60;77.20
31783;DHT22;18351;47.560;9.708;2022-12-29T14:47:41;11.60;77.40
31783;DHT22;18351;47.560;9.708;2022-12-29T14:53:05;11.60;79.80
31783;DHT22;18351;47.560;9.708;2022-12-29T14:55:43;11.50;80.80
31783;DHT22;18351;47.560;9.708;2022-12-29T14:58:19;11.50;81.70
31783;DHT22;18351;47.560;9.708;2022-12-29T15:00:46;11.40;82.40
31783;DHT22;18351;47.560;9.708;2022-12-29T15:03:25;11.30;83.40
31783;DHT22;18351;47.560;9.708;2022-12-29T15:06:03;11.40;81.50
31783;DHT22;18351;47.560;9.708;2022-12-29T15:08:33;11.30;84.00
31783;DHT22;18351;47.560;9.708;2022-12-29T15:11:15;11.20;84.60
31783;DHT22;18351;47.560;9.708;2022-12-29T15:13:43;11.10;86.10
31783;DHT22;18351;47.560;9.708;2022-12-29T15:18:50;11.00;88.20
31783;DHT22;18351;47.560;9.708;2022-12-29T15:21:16;10.90;88.80
31783;DHT22;18351;47.560;9.708;2022-12-29T15:23:45;10.90;90.50
31783;DHT22;18351;47.560;9.708;2022-12-29T15:26:11;10.80;90.90
31783;DHT22;18351;47.560;9.708;2022-12-29T15:28:39;10.70;91.70
31783;DHT22;18351;47.560;9.708;2022-12-29T15:31:14;10.70;92.70
31783;DHT22;18351;47.560;9.708;2022-12-29T15:33:42;10.70;92.90
31783;DHT22;18351;47.560;9.708;2022-12-29T15:36:23;10.50;93.90
31783;DHT22;18351;47.560;9.708;2022-12-29T15:38:50;10.40;95.10
31783;DHT22;18351;47.560;9.708;2022-12-29T15:41:35;10.40;95.10
31783;DHT22;18351;47.560;9.708;2022-12-29T15:44:43;10.30;94.60
31783;DHT22;18351;47.560;9.708;2022-12-29T15:47:25;10.20;95.50
31783;DHT22;18351;47.560;9.708;2022-12-29T15:49:59;10.10;97.10
31783;DHT22;18351;47.560;9.708;2022-12-29T15:52:31;10.00;98.70
31783;DHT22;18351;47.560;9.708;2022-12-29T15:54:58;9.90;99.00
31783;DHT22;18351;47.560;9.708;2022-12-29T15:57:26;9.80;99.80
31783;DHT22;18351;47.560;9.708;2022-12-29T15:59:52;9.70;99.90
31783;DHT22;18351;47.560;9.708;2022-12-29T16:02:19;9.70;99.90
31783;DHT22;18351;47.560;9.708;2022-12-29T16:04:45;9.60;99.90
31783;DHT22;18351;47.560;9.708;2022-12-29T16:07:28;9.60;99.90
31783;DHT22;18351;47.560;9.708;2022-12-29T16:09:56;9.50;99.90
31783;DHT22;18351;47.560;9.708;2022-12-29T16:12:31;9.40;99.90
31783;DHT22;18351;47.560;9.708;2022-12-29T16:15:02;9.40;99.90
31783;DHT22;18351;47.560;9.708;2022-12-29T16:17:31;9.40;99.90
31783;DHT22;18351;47.560;9.708;2022-12-29T16:20:00;9.40;99.90
31783;DHT22;18351;47.560;9.708;2022-12-29T16:22:36;9.40;99.90
31783;DHT22;18351;47.560;9.708;2022-12-29T16:27:50;9.30;99.90
31783;DHT22;18351;47.560;9.708;2022-12-29T16:30:25;9.30;99.90
31783;DHT22;18351;47.560;9.708;2022-12-29T16:32:51;9.30;99.90
31783;DHT22;18351;47.560;9.708;2022-12-29T16:35:19;9.30;99.90
31783;DHT22;18351;47.560;9.708;2022-12-29T16:37:46;9.30;99.90
31783;DHT22;18351;47.560;9.708;2022-12-29T16:42:49;9.30;99.90
31783;DHT22;18351;47.560;9.708;2022-12-29T16:48:10;9.20;99.90
31783;DHT22;18351;47.560;9.708;2022-12-29T16:50:38;9.20;99.90
31783;DHT22;18351;47.560;9.708;2022-12-29T16:53:05;9.20;99.90
31783;DHT22;18351;47.560;9.708;2022-12-29T16:55:32;9.20;99.90
31783;DHT22;18351;47.560;9.708;2022-12-29T16:57:58;9.20;99.90
31783;DHT22;18351;47.560;9.708;2022-12-29T17:00:26;9.20;99.90
31783;DHT22;18351;47.560;9.708;2022-12-29T17:02:55;9.20;99.90
31783;DHT22;18351;47.560;9.708;2022-12-29T17:05:21;9.20;99.90
31783;DHT22;18351;47.560;9.708;2022-12-29T17:07:47;9.10;99.90
31783;DHT22;18351;47.560;9.708;2022-12-29T17:10:13;9.20;99.90
31783;DHT22;18351;47.560;9.708;2022-12-29T17:12:41;9.30;99.90
31783;DHT22;18351;47.560;9.708;2022-12-29T17:15:30;9.40;99.90
31783;DHT22;18351;47.560;9.708;2022-12-29T17:17:59;9.40;99.90
31783;DHT22;18351;47.560;9.708;2022-12-29T17:20:27;9.40;99.90
31783;DHT22;18351;47.560;9.708;2022-12-29T17:22:54;9.40;99.90
31783;DHT22;18351;47.560;9.708;2022-12-29T17:25:30;9.50;99.90
31783;DHT22;18351;47.560;9.708;2022-12-29T17:28:20;9.40;99.90
31783;DHT22;18351;47.560;9.708;2022-12-29T17:30:47;9.40;99.90
31783;DHT22;18351;47.560;9.708;2022-12-29T17:33:14;9.40;99.90
31783;DHT22;18351;47.560;9.708;2022-12-29T17:35:41;9.40;99.90
31783;DHT22;18351;47.560;9.708;2022-12-29T17:38:16;9.40;99.90
31783;DHT22;18351;47.560;9.708;2022-12-29T17:40:42;9.40;99.90
31783;DHT22;18351;47.560;9.708;2022-12-29T17:43:10;9.30;99.90
31783;DHT22;18351;47.560;9.708;2022-12-29T17:45:38;9.20;99.90
31783;DHT22;18351;47.560;9.708;2022-12-29T17:48:11;9.20;99.90
31783;DHT22;18351;47.560;9.708;2022-12-29T17:50:37;9.10;99.90
31783;DHT22;18351;47.560;9.708;2022-12-29T17:53:04;9.00;99.90
31783;DHT22;18351;47.560;9.708;2022-12-29T17:55:30;8.90;99.90
31783;DHT22;18351;47.560;9.708;2022-12-29T17:57:56;8.80;99.90
31783;DHT22;18351;47.560;9.708;2022-12-29T18:00:24;8.90;99.90
31783;DHT22;18351;47.560;9.708;2022-12-29T18:02:54;8.90;99.90
31783;DHT22;18351;47.560;9.708;2022-12-29T18:05:23;8.80;99.90
31783;DHT22;18351;47.560;9.708;2022-12-29T18:07:54;8.80;99.90
31783;DHT22;18351;47.560;9.708;2022-12-29T18:10:21;8.90;99.90
31783;DHT22;18351;47.560;9.708;2022-12-29T18:12:50;8.80;99.90
31783;DHT22;18351;47.560;9.708;2022-12-29T18:15:25;8.80;99.90